Airport View

Enter AWOS ICAO identifier for current METAR.

ex. KFNL

KPAN 022310Z AUTO VRB06G23KT 10SM SCT120 33/M01 A3012 RMK AO2

2 Jun 2020 23:13

Frequency: 119.325

Phone: 928-472-4260

Other Area AWOS: KSEZ - P52 - KSDL - KDVT

TAF KSEZ 021720Z 0218/0318 VRB05KT P6SM SCT110